createdAt,value
2023-02-12T00:02:17.024Z,-2.3
2023-02-12T00:07:53.943Z,-2.3
2023-02-12T00:13:31.185Z,-2.3
2023-02-12T00:18:37.918Z,-2.2
2023-02-12T00:24:15.940Z,-2.2
2023-02-12T00:29:54.926Z,-2.2
2023-02-12T00:35:18.104Z,-2.2
2023-02-12T00:40:56.814Z,-2.2
2023-02-12T00:46:34.932Z,-2.2
2023-02-12T00:52:15.253Z,-2.1
2023-02-12T00:57:52.658Z,-2.2
2023-02-12T01:03:30.518Z,-2.2
2023-02-12T01:09:07.991Z,-2.2
2023-02-12T01:14:44.969Z,-2.2
2023-02-12T01:20:24.141Z,-2.2
2023-02-12T01:25:46.746Z,-2.2
2023-02-12T01:31:25.678Z,-2.2
2023-02-12T01:37:04.879Z,-2.2
2023-02-12T01:42:45.055Z,-2.2
2023-02-12T01:48:22.729Z,-2.3
2023-02-12T01:54:00.628Z,-2.3
2023-02-12T01:59:38.590Z,-2.3
2023-02-12T02:05:16.782Z,-2.3
2023-02-12T02:10:39.031Z,-2.3
2023-02-12T02:16:16.839Z,-2.4
2023-02-12T02:21:54.617Z,-2.4
2023-02-12T02:27:31.628Z,-2.4
2023-02-12T02:33:08.683Z,-2.5
2023-02-12T02:39:01.711Z,-2.6
2023-02-12T02:44:38.842Z,-2.6
2023-02-12T02:50:16.415Z,-2.6
2023-02-12T02:55:55.043Z,-2.6
2023-02-12T03:01:18.278Z,-2.6
2023-02-12T03:06:40.739Z,-2.6
2023-02-12T03:12:19.118Z,-2.6
2023-02-12T03:17:56.584Z,-2.6
2023-02-12T03:23:33.030Z,-2.6
2023-02-12T03:28:55.494Z,-2.5
2023-02-12T03:34:17.333Z,-2.5
2023-02-12T03:39:53.677Z,-2.4
2023-02-12T03:45:31.501Z,-2.4
2023-02-12T03:51:08.821Z,-2.3
2023-02-12T03:56:45.842Z,-2.3
2023-02-12T04:02:24.459Z,-2.2
2023-02-12T04:08:02.627Z,-2.1
2023-02-12T04:13:37.996Z,-2.1
2023-02-12T04:19:17.865Z,-2.1
2023-02-12T04:24:56.033Z,-2.1
2023-02-12T04:30:34.050Z,-2
2023-02-12T04:36:12.773Z,-1.9
2023-02-12T04:41:34.159Z,-1.9
2023-02-12T04:47:10.245Z,-1.9
2023-02-12T04:52:47.980Z,-1.9
2023-02-12T04:58:24.378Z,-1.9
2023-02-12T05:04:05.598Z,-1.8
2023-02-12T05:09:43.358Z,-1.8
2023-02-12T05:15:04.644Z,-1.7
2023-02-12T05:20:26.609Z,-1.6
2023-02-12T05:26:04.159Z,-1.6
2023-02-12T05:31:26.426Z,-1.5
2023-02-12T05:37:04.410Z,-1.4
2023-02-12T05:42:27.261Z,-1.4
2023-02-12T05:48:03.885Z,-1.3
2023-02-12T05:53:26.828Z,-1.3
2023-02-12T05:59:05.819Z,-1.2
2023-02-12T06:04:42.686Z,-1.2
2023-02-12T06:10:03.688Z,-1.1
2023-02-12T06:15:43.389Z,-1.1
2023-02-12T06:21:05.136Z,-1
2023-02-12T06:32:04.248Z,-0.8
2023-02-12T06:37:41.774Z,-0.8
2023-02-12T06:43:17.705Z,-0.6
2023-02-12T06:48:40.709Z,-0.6
2023-02-12T06:54:21.307Z,-0.4
2023-02-12T06:59:43.291Z,-0.4
2023-02-12T07:05:21.715Z,-0.3
2023-02-12T07:10:43.789Z,-0.2
2023-02-12T07:15:52.744Z,-0.1
2023-02-12T07:21:15.496Z,0
2023-02-12T07:26:24.339Z,0.1
2023-02-12T07:31:31.215Z,0.3
2023-02-12T07:37:08.477Z,0.4
2023-02-12T07:42:45.282Z,0.5
2023-02-12T07:48:06.997Z,0.6
2023-02-12T07:53:44.530Z,0.6
2023-02-12T07:59:06.092Z,0.8
2023-02-12T08:04:27.657Z,0.8
2023-02-12T08:10:06.006Z,0.9
2023-02-12T08:15:43.115Z,1
2023-02-12T08:21:34.568Z,1.1
2023-02-12T08:27:12.633Z,1.3
2023-02-12T08:32:51.015Z,1.4
2023-02-12T08:38:27.983Z,1.5
2023-02-12T08:44:05.598Z,1.6
2023-02-12T08:49:27.498Z,1.8
2023-02-12T08:54:50.183Z,1.9
2023-02-12T09:00:27.676Z,2.1
2023-02-12T09:06:04.940Z,2.2
2023-02-12T09:11:25.699Z,2.4
2023-02-12T09:17:04.194Z,2.7
2023-02-12T09:22:41.628Z,3.1
2023-02-12T09:28:17.793Z,3.6
2023-02-12T09:33:40.978Z,3.9
2023-02-12T09:39:03.435Z,4.2
2023-02-12T09:44:40.200Z,4.6
2023-02-12T09:50:19.605Z,5
2023-02-12T09:55:56.808Z,5.4
2023-02-12T10:01:42.835Z,5.9
2023-02-12T10:07:18.844Z,6.4
2023-02-12T10:12:59.783Z,7.1
2023-02-12T10:18:39.372Z,7.6
2023-02-12T10:24:24.551Z,8
2023-02-12T10:29:47.558Z,9.1
2023-02-12T10:35:11.576Z,10.8
2023-02-12T10:40:48.969Z,13.3
2023-02-12T10:46:27.524Z,16.6
2023-02-12T10:52:05.657Z,19.1
2023-02-12T10:57:45.230Z,20.1
2023-02-12T11:03:23.289Z,20.4
2023-02-12T11:09:00.240Z,20.3
2023-02-12T11:14:38.463Z,20.1
2023-02-12T11:20:18.144Z,20.4
2023-02-12T11:25:56.550Z,21.6
2023-02-12T11:31:19.526Z,23.7
2023-02-12T11:37:01.345Z,25.4
2023-02-12T11:42:38.537Z,26.1
2023-02-12T11:48:15.374Z,25.7
2023-02-12T11:53:21.908Z,25.4
2023-02-12T11:59:00.054Z,25.4
2023-02-12T12:04:22.128Z,25.3
2023-02-12T12:10:00.537Z,24.9
2023-02-12T12:15:22.580Z,24.4
2023-02-12T12:21:00.842Z,23.8
2023-02-12T12:26:37.791Z,23.1
2023-02-12T12:31:59.140Z,22.5
2023-02-12T12:37:36.068Z,21.9
2023-02-12T12:43:13.538Z,21.3
2023-02-12T12:48:51.016Z,20.6
2023-02-12T12:54:13.856Z,20.3
2023-02-12T12:59:51.375Z,20.1
2023-02-12T13:05:29.419Z,19.4
2023-02-12T13:11:08.387Z,18.6
2023-02-12T13:16:46.212Z,17.9
2023-02-12T13:22:07.816Z,17.3
2023-02-12T13:27:47.692Z,16.8
2023-02-12T13:33:34.507Z,16.8
2023-02-12T13:38:56.969Z,16.7
2023-02-12T13:44:06.084Z,16.3
2023-02-12T13:49:29.351Z,15.9
2023-02-12T13:54:51.002Z,15.3
2023-02-12T14:00:13.234Z,14.8
2023-02-12T14:05:36.456Z,14.3
2023-02-12T14:10:59.641Z,13.8
2023-02-12T14:16:24.388Z,13.3
2023-02-12T14:21:48.697Z,12.8
2023-02-12T14:27:10.667Z,12.3
2023-02-12T14:32:18.640Z,11.8
2023-02-12T14:37:41.606Z,11.3
2023-02-12T14:43:02.222Z,10.9
2023-02-12T14:48:23.760Z,10.4
2023-02-12T14:53:46.165Z,10.1
2023-02-12T14:59:09.157Z,9.6
2023-02-12T15:04:46.941Z,9.3
2023-02-12T15:09:54.276Z,8.9
2023-02-12T15:15:31.958Z,8.6
2023-02-12T15:21:09.796Z,8.2
2023-02-12T15:26:48.135Z,7.8
2023-02-12T15:32:28.834Z,7.5
2023-02-12T15:38:12.292Z,7.1
2023-02-12T15:43:18.891Z,6.9
2023-02-12T15:48:58.652Z,6.5
2023-02-12T15:54:35.229Z,6.3
2023-02-12T15:59:29.078Z,5.9
2023-02-12T16:04:50.683Z,5.7
2023-02-12T16:10:28.626Z,5.4
2023-02-12T16:15:35.174Z,5.2
2023-02-12T16:20:57.215Z,4.9
2023-02-12T16:26:34.665Z,4.6
2023-02-12T16:32:13.362Z,4.4
2023-02-12T16:37:50.515Z,4.2
2023-02-12T16:43:28.670Z,3.9
2023-02-12T16:49:07.347Z,3.8
2023-02-12T16:54:44.548Z,3.6
2023-02-12T17:00:07.086Z,3.4
2023-02-12T17:05:30.526Z,3.2
2023-02-12T17:10:52.699Z,3
2023-02-12T17:16:29.674Z,2.8
2023-02-12T17:22:07.772Z,2.6
2023-02-12T17:27:30.181Z,2.5
2023-02-12T17:32:52.752Z,2.4
2023-02-12T17:38:45.872Z,2.2
2023-02-12T17:44:23.728Z,2.1
2023-02-12T17:50:02.453Z,1.9
2023-02-12T17:55:40.484Z,1.8
2023-02-12T18:01:18.043Z,1.7
2023-02-12T18:06:24.937Z,1.6
2023-02-12T18:11:47.984Z,1.5
2023-02-12T18:17:24.481Z,1.4
2023-02-12T18:23:02.217Z,1.4
2023-02-12T18:28:40.047Z,1.3
2023-02-12T18:34:18.192Z,1.2
2023-02-12T18:39:56.232Z,1.1
2023-02-12T18:45:18.412Z,1.1
2023-02-12T18:50:57.240Z,1
2023-02-12T18:56:35.755Z,0.9
2023-02-12T19:01:59.198Z,0.9
2023-02-12T19:07:21.835Z,0.8
2023-02-12T19:12:44.736Z,0.8
2023-02-12T19:18:07.449Z,0.7
2023-02-12T19:23:29.832Z,0.6
2023-02-12T19:29:32.689Z,0.5
2023-02-12T19:34:42.072Z,0.5
2023-02-12T19:40:05.060Z,0.4
2023-02-12T19:45:44.725Z,0.3
2023-02-12T19:51:06.789Z,0.3
2023-02-12T19:56:29.474Z,0.1
2023-02-12T20:01:36.186Z,0.1
2023-02-12T20:06:27.584Z,-0.1
2023-02-12T20:11:34.730Z,-0.2
2023-02-12T20:16:57.655Z,-0.3
2023-02-12T20:22:05.187Z,-0.4
2023-02-12T20:27:28.899Z,-0.5
2023-02-12T20:32:51.296Z,-0.6
2023-02-12T20:38:21.198Z,-0.7
2023-02-12T20:43:43.341Z,-0.8
2023-02-12T20:54:12.886Z,-1.1
2023-02-12T20:59:34.975Z,-1.2
2023-02-12T21:05:12.998Z,-1.3
2023-02-12T21:10:50.765Z,-1.4
2023-02-12T21:16:22.116Z,-1.4
2023-02-12T21:21:59.940Z,-1.6
2023-02-12T21:27:38.884Z,-1.6
2023-02-12T21:33:02.526Z,-1.8
2023-02-12T21:38:39.541Z,-1.8
2023-02-12T21:44:23.737Z,-1.9
2023-02-12T21:49:36.425Z,-2
2023-02-12T21:55:13.874Z,-2.1
2023-02-12T22:00:50.783Z,-2.2
2023-02-12T22:06:27.196Z,-2.3
2023-02-12T22:12:03.932Z,-2.4
2023-02-12T22:17:41.700Z,-2.4
2023-02-12T22:23:19.241Z,-2.6
2023-02-12T22:28:56.073Z,-2.6
2023-02-12T22:34:02.523Z,-2.8
2023-02-12T22:39:40.114Z,-2.8
2023-02-12T22:45:17.713Z,-2.8
2023-02-12T22:50:55.211Z,-2.9
2023-02-12T22:56:32.751Z,-3
2023-02-12T23:02:10.545Z,-3
2023-02-12T23:08:02.763Z,-3.1
2023-02-12T23:13:41.142Z,-3.1
2023-02-12T23:19:02.959Z,-3.2
2023-02-12T23:24:09.928Z,-3.3
2023-02-12T23:29:31.938Z,-3.3
2023-02-12T23:35:10.966Z,-3.3
2023-02-12T23:40:32.105Z,-3.4
2023-02-12T23:45:39.559Z,-3.4
2023-02-12T23:51:00.758Z,-3.4
2023-02-12T23:56:29.357Z,-3.5
